Ellisburg, Pennsylvania
Current Conditions -  °F | °C
As of 8:56 AM on Sunday 25 Jan 2015 (Local Time) from KELZ Reporting Station
Overcast Overcast  
Wind Chill:   Ceiling: 1700
Heat Index: 21°   Visibility: 10mi
Dew Point: 14°   Wind: 13mph
Humidity: 74%   Direction: 330°NNW
Pressure: 29.73"   Gusts: 18mph
Location:  41.915°N, 77.8855°W
Report Text: KELZ 251356Z AUTO 33011G16KT 10SM BKN017 OVC021 M06/M10 A2973 RMK AO2 SLP096 T10611100
Loading
Personal Weather Stations






























Interactive Weather Map New forecast layout! Learn more

10-Day Weather Forecast

Advertisements
Track Severe Weather on mobile